sensor_id;sensor_type;location;lat;lon;timestamp;pressure;altitude;pressure_sealevel;temperature;humidity
85524;BME280;75932;48.616;9.270;2024-01-25T00:02:17;99646.69;;;7.63;75.92
85524;BME280;75932;48.616;9.270;2024-01-25T00:04:42;99644.22;;;7.62;76.66
85524;BME280;75932;48.616;9.270;2024-01-25T00:07:08;99633.16;;;7.62;76.52
85524;BME280;75932;48.616;9.270;2024-01-25T00:09:34;99613.31;;;7.46;76.82
85524;BME280;75932;48.616;9.270;2024-01-25T00:12:00;99633.28;;;7.56;76.55
85524;BME280;75932;48.616;9.270;2024-01-25T00:14:25;99634.81;;;7.63;76.10
85524;BME280;75932;48.616;9.270;2024-01-25T00:16:51;99636.75;;;7.62;76.10
85524;BME280;75932;48.616;9.270;2024-01-25T00:19:17;99637.38;;;7.59;76.50
85524;BME280;75932;48.616;9.270;2024-01-25T00:21:43;99629.69;;;7.56;76.65
85524;BME280;75932;48.616;9.270;2024-01-25T00:24:11;99610.34;;;7.42;76.44
85524;BME280;75932;48.616;9.270;2024-01-25T00:26:37;99621.63;;;7.46;77.26
85524;BME280;75932;48.616;9.270;2024-01-25T00:29:02;99612.50;;;7.45;77.46
85524;BME280;75932;48.616;9.270;2024-01-25T00:31:27;99618.34;;;7.44;78.31
85524;BME280;75932;48.616;9.270;2024-01-25T00:33:53;99619.16;;;7.44;77.30
85524;BME280;75932;48.616;9.270;2024-01-25T00:36:18;99617.53;;;7.43;78.53
85524;BME280;75932;48.616;9.270;2024-01-25T00:38:44;99611.59;;;7.36;78.32
85524;BME280;75932;48.616;9.270;2024-01-25T00:41:17;99618.47;;;7.39;78.36
85524;BME280;75932;48.616;9.270;2024-01-25T00:43:43;99615.72;;;7.39;78.48
85524;BME280;75932;48.616;9.270;2024-01-25T00:46:09;99609.03;;;7.40;78.62
85524;BME280;75932;48.616;9.270;2024-01-25T00:48:34;99606.97;;;7.45;77.85
85524;BME280;75932;48.616;9.270;2024-01-25T00:51:00;99608.59;;;7.46;77.97
85524;BME280;75932;48.616;9.270;2024-01-25T00:53:26;99613.53;;;7.49;77.31
85524;BME280;75932;48.616;9.270;2024-01-25T00:55:51;99610.13;;;7.52;77.14
85524;BME280;75932;48.616;9.270;2024-01-25T00:58:17;99597.50;;;7.46;77.55
85524;BME280;75932;48.616;9.270;2024-01-25T01:00:43;99611.25;;;7.51;78.01
85524;BME280;75932;48.616;9.270;2024-01-25T01:03:09;99613.53;;;7.49;78.20
85524;BME280;75932;48.616;9.270;2024-01-25T01:05:35;99610.56;;;7.46;77.82
85524;BME280;75932;48.616;9.270;2024-01-25T01:08:00;99609.75;;;7.45;77.63
85524;BME280;75932;48.616;9.270;2024-01-25T01:10:26;99610.34;;;7.42;78.57
85524;BME280;75932;48.616;9.270;2024-01-25T01:12:51;99619.16;;;7.44;78.18
85524;BME280;75932;48.616;9.270;2024-01-25T01:15:18;99615.59;;;7.44;79.06
85524;BME280;75932;48.616;9.270;2024-01-25T01:17:46;99622.13;;;7.48;78.65
85524;BME280;75932;48.616;9.270;2024-01-25T01:20:11;99606.84;;;7.50;79.34
85524;BME280;75932;48.616;9.270;2024-01-25T01:22:36;99593.88;;;7.37;79.79
85524;BME280;75932;48.616;9.270;2024-01-25T01:25:02;99616.59;;;7.48;79.56
85524;BME280;75932;48.616;9.270;2024-01-25T01:27:27;99608.94;;;7.45;79.53
85524;BME280;75932;48.616;9.270;2024-01-25T01:29:52;99613.63;;;7.44;80.65
85524;BME280;75932;48.616;9.270;2024-01-25T01:32:20;99612.06;;;7.52;79.79
85524;BME280;75932;48.616;9.270;2024-01-25T01:34:45;99608.66;;;7.55;79.91
85524;BME280;75932;48.616;9.270;2024-01-25T01:37:10;99605.06;;;7.54;80.10
85524;BME280;75932;48.616;9.270;2024-01-25T01:39:36;99613.38;;;7.54;80.34
85524;BME280;75932;48.616;9.270;2024-01-25T01:42:03;99610.91;;;7.53;80.03
85524;BME280;75932;48.616;9.270;2024-01-25T01:44:29;99600.78;;;7.48;80.58
85524;BME280;75932;48.616;9.270;2024-01-25T01:46:54;99574.47;;;7.37;80.07
85524;BME280;75932;48.616;9.270;2024-01-25T01:49:20;99600.63;;;7.45;80.21
85524;BME280;75932;48.616;9.270;2024-01-25T01:51:45;99598.34;;;7.47;80.01
85524;BME280;75932;48.616;9.270;2024-01-25T01:54:11;99601.44;;;7.45;80.07
85524;BME280;75932;48.616;9.270;2024-01-25T01:56:36;99589.53;;;7.45;79.90
85524;BME280;75932;48.616;9.270;2024-01-25T01:59:04;99606.97;;;7.45;79.76
85524;BME280;75932;48.616;9.270;2024-01-25T02:01:30;99588.69;;;7.44;80.01
85524;BME280;75932;48.616;9.270;2024-01-25T02:03:56;99586.44;;;7.46;79.55
85524;BME280;75932;48.616;9.270;2024-01-25T02:06:22;99530.00;;;7.11;79.97
85524;BME280;75932;48.616;9.270;2024-01-25T02:08:48;99585.31;;;7.47;79.53
85524;BME280;75932;48.616;9.270;2024-01-25T02:11:16;99588.09;;;7.47;80.25
85524;BME280;75932;48.616;9.270;2024-01-25T02:13:41;99597.22;;;7.48;80.53
85524;BME280;75932;48.616;9.270;2024-01-25T02:16:07;99602.09;;;7.51;79.75
85524;BME280;75932;48.616;9.270;2024-01-25T02:18:33;99598.22;;;7.52;79.81
85524;BME280;75932;48.616;9.270;2024-01-25T02:20:58;99595.97;;;7.54;80.15
85524;BME280;75932;48.616;9.270;2024-01-25T02:23:24;99595.22;;;7.62;80.53
85524;BME280;75932;48.616;9.270;2024-01-25T02:25:49;99597.63;;;7.64;80.34
85524;BME280;75932;48.616;9.270;2024-01-25T02:28:15;99584.56;;;7.55;80.79
85524;BME280;75932;48.616;9.270;2024-01-25T02:30:40;99602.25;;;7.68;79.73
85524;BME280;75932;48.616;9.270;2024-01-25T02:33:05;99598.22;;;7.74;80.67
85524;BME280;75932;48.616;9.270;2024-01-25T02:35:30;99593.00;;;7.73;80.85
85524;BME280;75932;48.616;9.270;2024-01-25T02:37:56;99597.72;;;7.72;80.87
85524;BME280;75932;48.616;9.270;2024-01-25T02:40:21;99582.03;;;7.68;80.95
85524;BME280;75932;48.616;9.270;2024-01-25T02:42:47;99577.94;;;7.65;81.68
85524;BME280;75932;48.616;9.270;2024-01-25T02:45:12;99589.53;;;7.67;81.75
85524;BME280;75932;48.616;9.270;2024-01-25T02:47:37;99594.47;;;7.70;80.82
85524;BME280;75932;48.616;9.270;2024-01-25T02:50:03;99592.81;;;7.69;81.63
85524;BME280;75932;48.616;9.270;2024-01-25T02:52:28;99587.78;;;7.71;81.55
85524;BME280;75932;48.616;9.270;2024-01-25T02:54:53;99597.22;;;7.70;81.93
85524;BME280;75932;48.616;9.270;2024-01-25T02:57:19;99598.53;;;7.73;82.12
85524;BME280;75932;48.616;9.270;2024-01-25T02:59:44;99596.88;;;7.72;81.75
85524;BME280;75932;48.616;9.270;2024-01-25T03:02:09;99595.28;;;7.71;82.55
85524;BME280;75932;48.616;9.270;2024-01-25T03:04:34;99595.88;;;7.68;83.04
85524;BME280;75932;48.616;9.270;2024-01-25T03:07:00;99594.88;;;7.64;82.80
85524;BME280;75932;48.616;9.270;2024-01-25T03:09:25;99588.81;;;7.62;82.67
85524;BME280;75932;48.616;9.270;2024-01-25T03:11:50;99593.06;;;7.59;83.19
85524;BME280;75932;48.616;9.270;2024-01-25T03:14:16;99598.09;;;7.57;82.92
85524;BME280;75932;48.616;9.270;2024-01-25T03:16:41;99616.16;;;7.54;82.89
85524;BME280;75932;48.616;9.270;2024-01-25T03:19:06;99620.38;;;7.52;83.26
85524;BME280;75932;48.616;9.270;2024-01-25T03:21:31;99615.66;;;7.52;83.41
85524;BME280;75932;48.616;9.270;2024-01-25T03:23:57;99617.31;;;7.53;84.10
85524;BME280;75932;48.616;9.270;2024-01-25T03:26:22;99602.31;;;7.54;83.06
85524;BME280;75932;48.616;9.270;2024-01-25T03:28:47;99608.34;;;7.56;83.88
85524;BME280;75932;48.616;9.270;2024-01-25T03:31:15;99615.22;;;7.59;83.63
85524;BME280;75932;48.616;9.270;2024-01-25T03:33:40;99617.47;;;7.57;83.55
85524;BME280;75932;48.616;9.270;2024-01-25T03:36:06;99624.47;;;7.54;83.72
85524;BME280;75932;48.616;9.270;2024-01-25T03:38:31;99622.00;;;7.53;82.72
85524;BME280;75932;48.616;9.270;2024-01-25T03:40:57;99633.28;;;7.56;83.57
85524;BME280;75932;48.616;9.270;2024-01-25T03:43:24;99632.97;;;7.58;83.18
85524;BME280;75932;48.616;9.270;2024-01-25T03:45:50;99634.44;;;7.55;83.62
85524;BME280;75932;48.616;9.270;2024-01-25T03:48:15;99644.16;;;7.53;83.43
85524;BME280;75932;48.616;9.270;2024-01-25T03:50:41;99647.56;;;7.50;83.98
85524;BME280;75932;48.616;9.270;2024-01-25T03:53:06;99648.59;;;7.54;83.25
85524;BME280;75932;48.616;9.270;2024-01-25T03:55:31;99626.28;;;7.36;83.85
85524;BME280;75932;48.616;9.270;2024-01-25T03:57:57;99657.50;;;7.51;83.57
85524;BME280;75932;48.616;9.270;2024-01-25T04:00:22;99657.50;;;7.51;83.46
85524;BME280;75932;48.616;9.270;2024-01-25T04:02:48;99655.16;;;7.44;83.95
85524;BME280;75932;48.616;9.270;2024-01-25T04:05:13;99625.69;;;7.26;83.57
85524;BME280;75932;48.616;9.270;2024-01-25T04:07:41;99643.84;;;7.32;84.25
85524;BME280;75932;48.616;9.270;2024-01-25T04:10:07;99669.63;;;7.41;84.18
85524;BME280;75932;48.616;9.270;2024-01-25T04:12:32;99662.44;;;7.40;84.09
85524;BME280;75932;48.616;9.270;2024-01-25T04:15:01;99663.72;;;7.34;83.87
85524;BME280;75932;48.616;9.270;2024-01-25T04:17:26;99669.13;;;7.39;83.62
85524;BME280;75932;48.616;9.270;2024-01-25T04:19:51;99652.94;;;7.32;83.90
85524;BME280;75932;48.616;9.270;2024-01-25T04:22:16;99661.63;;;7.40;83.59
85524;BME280;75932;48.616;9.270;2024-01-25T04:24:42;99662.28;;;7.36;83.67
85524;BME280;75932;48.616;9.270;2024-01-25T04:27:09;99662.78;;;7.39;82.97
85524;BME280;75932;48.616;9.270;2024-01-25T04:29:38;99666.66;;;7.38;83.36
85524;BME280;75932;48.616;9.270;2024-01-25T04:32:04;99656.09;;;7.40;83.39
85524;BME280;75932;48.616;9.270;2024-01-25T04:34:29;99669.94;;;7.40;83.48
85524;BME280;75932;48.616;9.270;2024-01-25T04:36:55;99673.00;;;7.38;82.48
85524;BME280;75932;48.616;9.270;2024-01-25T04:39:20;99680.22;;;7.39;82.49
85524;BME280;75932;48.616;9.270;2024-01-25T04:41:45;99678.03;;;7.36;82.09
85524;BME280;75932;48.616;9.270;2024-01-25T04:44:11;99674.97;;;7.38;82.47
85524;BME280;75932;48.616;9.270;2024-01-25T04:46:38;99681.03;;;7.40;82.16
85524;BME280;75932;48.616;9.270;2024-01-25T04:49:03;99684.09;;;7.38;81.28
85524;BME280;75932;48.616;9.270;2024-01-25T04:51:29;99686.06;;;7.38;81.61
85524;BME280;75932;48.616;9.270;2024-01-25T04:53:54;99669.06;;;7.30;81.97
85524;BME280;75932;48.616;9.270;2024-01-25T04:56:20;99693.25;;;7.39;81.45
85524;BME280;75932;48.616;9.270;2024-01-25T04:58:45;99693.84;;;7.35;82.23
85524;BME280;75932;48.616;9.270;2024-01-25T05:01:13;99694.34;;;7.38;81.42
85524;BME280;75932;48.616;9.270;2024-01-25T05:03:39;99687.69;;;7.39;81.29
85524;BME280;75932;48.616;9.270;2024-01-25T05:06:04;99699.91;;;7.38;81.31
85524;BME280;75932;48.616;9.270;2024-01-25T05:08:29;99702.66;;;7.38;80.95
85524;BME280;75932;48.616;9.270;2024-01-25T05:10:55;99704.09;;;7.35;81.18
85524;BME280;75932;48.616;9.270;2024-01-25T05:13:20;99721.53;;;7.35;80.22
85524;BME280;75932;48.616;9.270;2024-01-25T05:15:45;99723.78;;;7.33;79.82
85524;BME280;75932;48.616;9.270;2024-01-25T05:18:11;99722.16;;;7.32;80.44
85524;BME280;75932;48.616;9.270;2024-01-25T05:20:36;99722.97;;;7.33;80.29
85524;BME280;75932;48.616;9.270;2024-01-25T05:23:03;99716.41;;;7.29;80.94
85524;BME280;75932;48.616;9.270;2024-01-25T05:25:29;99727.28;;;7.25;81.19
85524;BME280;75932;48.616;9.270;2024-01-25T05:27:56;99702.09;;;7.13;80.51
85524;BME280;75932;48.616;9.270;2024-01-25T05:30:22;99697.56;;;7.03;81.25
85524;BME280;75932;48.616;9.270;2024-01-25T05:32:47;99716.75;;;7.13;80.53
85524;BME280;75932;48.616;9.270;2024-01-25T05:35:14;99712.75;;;7.06;81.62
85524;BME280;75932;48.616;9.270;2024-01-25T05:37:40;99717.25;;;7.02;80.45
85524;BME280;75932;48.616;9.270;2024-01-25T05:40:06;99714.09;;;6.94;80.63
85524;BME280;75932;48.616;9.270;2024-01-25T05:42:31;99721.75;;;6.84;81.25
85524;BME280;75932;48.616;9.270;2024-01-25T05:44:57;99734.34;;;6.76;80.43
85524;BME280;75932;48.616;9.270;2024-01-25T05:47:22;99735.19;;;6.77;78.84
85524;BME280;75932;48.616;9.270;2024-01-25T05:49:50;99734.56;;;6.66;78.67
85524;BME280;75932;48.616;9.270;2024-01-25T05:52:15;99733.59;;;6.57;79.77
85524;BME280;75932;48.616;9.270;2024-01-25T05:54:41;99736.75;;;6.50;79.93
85524;BME280;75932;48.616;9.270;2024-01-25T05:57:06;99729.84;;;6.33;79.84
85524;BME280;75932;48.616;9.270;2024-01-25T05:59:31;99724.00;;;6.21;80.55
85524;BME280;75932;48.616;9.270;2024-01-25T06:01:57;99729.41;;;6.12;80.69
85524;BME280;75932;48.616;9.270;2024-01-25T06:04:22;99716.13;;;5.96;81.99
85524;BME280;75932;48.616;9.270;2024-01-25T06:06:47;99725.88;;;5.88;82.18
85524;BME280;75932;48.616;9.270;2024-01-25T06:09:13;99738.44;;;5.99;83.40
85524;BME280;75932;48.616;9.270;2024-01-25T06:11:40;99732.31;;;5.83;82.57
85524;BME280;75932;48.616;9.270;2024-01-25T06:14:06;99724.16;;;5.73;82.72
85524;BME280;75932;48.616;9.270;2024-01-25T06:16:31;99730.44;;;5.60;83.70
85524;BME280;75932;48.616;9.270;2024-01-25T06:18:56;99734.22;;;5.45;84.21
85524;BME280;75932;48.616;9.270;2024-01-25T06:21:23;99738.91;;;5.25;84.98
85524;BME280;75932;48.616;9.270;2024-01-25T06:23:49;99734.50;;;5.24;86.63
85524;BME280;75932;48.616;9.270;2024-01-25T06:26:14;99733.81;;;5.14;86.92
85524;BME280;75932;48.616;9.270;2024-01-25T06:28:39;99738.44;;;5.18;88.04
85524;BME280;75932;48.616;9.270;2024-01-25T06:31:06;99736.16;;;5.25;87.93
85524;BME280;75932;48.616;9.270;2024-01-25T06:33:31;99741.72;;;5.20;87.48
85524;BME280;75932;48.616;9.270;2024-01-25T06:35:57;99755.22;;;5.22;87.76
85524;BME280;75932;48.616;9.270;2024-01-25T06:38:23;99741.47;;;5.41;87.26
85524;BME280;75932;48.616;9.270;2024-01-25T06:40:48;99747.28;;;5.39;87.05
85524;BME280;75932;48.616;9.270;2024-01-25T06:43:13;99754.31;;;5.69;86.84
85524;BME280;75932;48.616;9.270;2024-01-25T06:45:39;99748.88;;;5.64;86.66
85524;BME280;75932;48.616;9.270;2024-01-25T06:48:07;99749.69;;;5.65;86.85
85524;BME280;75932;48.616;9.270;2024-01-25T06:50:33;99762.38;;;5.47;86.74
85524;BME280;75932;48.616;9.270;2024-01-25T06:52:59;99758.47;;;5.48;86.56
85524;BME280;75932;48.616;9.270;2024-01-25T06:55:24;99759.38;;;5.43;86.14
85524;BME280;75932;48.616;9.270;2024-01-25T06:57:49;99759.84;;;5.88;84.92
85524;BME280;75932;48.616;9.270;2024-01-25T07:00:15;99765.34;;;5.69;86.82
85524;BME280;75932;48.616;9.270;2024-01-25T07:02:43;99760.78;;;5.41;85.29
85524;BME280;75932;48.616;9.270;2024-01-25T07:05:09;99764.56;;;5.26;85.67
85524;BME280;75932;48.616;9.270;2024-01-25T07:07:35;99757.00;;;5.13;86.17
85524;BME280;75932;48.616;9.270;2024-01-25T07:10:00;99756.22;;;5.07;86.69
85524;BME280;75932;48.616;9.270;2024-01-25T07:12:28;99764.78;;;5.05;86.39
85524;BME280;75932;48.616;9.270;2024-01-25T07:14:54;99760.94;;;5.06;85.98
85524;BME280;75932;48.616;9.270;2024-01-25T07:17:19;99756.22;;;5.07;86.58
85524;BME280;75932;48.616;9.270;2024-01-25T07:19:44;99756.13;;;5.17;86.46
85524;BME280;75932;48.616;9.270;2024-01-25T07:22:10;99736.16;;;5.25;85.05
85524;BME280;75932;48.616;9.270;2024-01-25T07:24:37;99770.34;;;5.67;83.47
85524;BME280;75932;48.616;9.270;2024-01-25T07:27:03;99779.78;;;5.85;82.86
85524;BME280;75932;48.616;9.270;2024-01-25T07:29:28;99775.19;;;6.00;81.45
85524;BME280;75932;48.616;9.270;2024-01-25T07:31:54;99775.75;;;6.16;80.84
85524;BME280;75932;48.616;9.270;2024-01-25T07:34:19;99780.53;;;6.29;80.49
85524;BME280;75932;48.616;9.270;2024-01-25T07:36:44;99786.97;;;6.57;79.61
85524;BME280;75932;48.616;9.270;2024-01-25T07:39:09;99788.69;;;6.86;78.94
85524;BME280;75932;48.616;9.270;2024-01-25T07:41:36;99793.75;;;7.39;76.66
85524;BME280;75932;48.616;9.270;2024-01-25T07:44:02;99784.25;;;7.68;74.62
85524;BME280;75932;48.616;9.270;2024-01-25T07:46:27;99782.50;;;8.08;73.55
85524;BME280;75932;48.616;9.270;2024-01-25T07:48:52;99775.34;;;8.44;70.98
85524;BME280;75932;48.616;9.270;2024-01-25T07:51:18;99775.63;;;8.42;71.21
85524;BME280;75932;48.616;9.270;2024-01-25T07:53:43;99763.72;;;8.95;69.66
85524;BME280;75932;48.616;9.270;2024-01-25T07:56:08;99764.75;;;9.57;67.07
85524;BME280;75932;48.616;9.270;2024-01-25T07:58:36;99702.00;;;9.65;65.92
85524;BME280;75932;48.616;9.270;2024-01-25T08:01:05;99757.81;;;10.29;64.60
85524;BME280;75932;48.616;9.270;2024-01-25T08:03:34;99757.69;;;10.81;62.73
85524;BME280;75932;48.616;9.270;2024-01-25T08:06:00;99767.28;;;11.10;61.19
85524;BME280;75932;48.616;9.270;2024-01-25T08:08:25;99759.69;;;11.19;60.86
85524;BME280;75932;48.616;9.270;2024-01-25T08:10:50;99764.28;;;11.54;59.63
85524;BME280;75932;48.616;9.270;2024-01-25T08:13:16;99760.00;;;11.56;59.27
85524;BME280;75932;48.616;9.270;2024-01-25T08:15:41;99769.88;;;11.75;58.60
85524;BME280;75932;48.616;9.270;2024-01-25T08:18:07;99770.28;;;11.94;58.56
85524;BME280;75932;48.616;9.270;2024-01-25T08:20:32;99772.34;;;11.76;58.07
85524;BME280;75932;48.616;9.270;2024-01-25T08:22:59;99747.00;;;12.11;56.62
85524;BME280;75932;48.616;9.270;2024-01-25T08:25:27;99774.16;;;12.44;56.90
85524;BME280;75932;48.616;9.270;2024-01-25T08:27:52;99771.91;;;12.71;56.39
85524;BME280;75932;48.616;9.270;2024-01-25T08:30:18;99778.47;;;12.54;57.12
85524;BME280;75932;48.616;9.270;2024-01-25T08:32:43;99775.72;;;11.91;57.69
85524;BME280;75932;48.616;9.270;2024-01-25T08:35:08;99776.56;;;12.33;56.96
85524;BME280;75932;48.616;9.270;2024-01-25T08:37:34;99784.72;;;12.38;57.02
85524;BME280;75932;48.616;9.270;2024-01-25T08:40:01;99778.41;;;12.29;57.11
85524;BME280;75932;48.616;9.270;2024-01-25T08:42:26;99784.63;;;12.05;57.43
85524;BME280;75932;48.616;9.270;2024-01-25T08:44:52;99786.13;;;12.44;56.87
85524;BME280;75932;48.616;9.270;2024-01-25T08:47:18;99768.59;;;12.23;58.07
85524;BME280;75932;48.616;9.270;2024-01-25T08:49:43;99773.72;;;12.54;55.94
85524;BME280;75932;48.616;9.270;2024-01-25T08:52:09;99794.25;;;13.16;54.08
85524;BME280;75932;48.616;9.270;2024-01-25T08:54:34;99800.13;;;12.90;55.65
85524;BME280;75932;48.616;9.270;2024-01-25T08:57:02;99794.75;;;12.52;56.74
85524;BME280;75932;48.616;9.270;2024-01-25T08:59:28;99791.97;;;12.52;57.05
85524;BME280;75932;48.616;9.270;2024-01-25T09:01:54;99813.97;;;12.32;57.80
85524;BME280;75932;48.616;9.270;2024-01-25T09:04:20;99816.63;;;12.50;56.40
85524;BME280;75932;48.616;9.270;2024-01-25T09:06:45;99819.84;;;12.18;57.33
85524;BME280;75932;48.616;9.270;2024-01-25T09:09:10;99823.50;;;11.51;59.08
85524;BME280;75932;48.616;9.270;2024-01-25T09:11:37;99823.41;;;11.98;59.05
85524;BME280;75932;48.616;9.270;2024-01-25T09:14:02;99821.75;;;12.05;58.04
85524;BME280;75932;48.616;9.270;2024-01-25T09:16:27;99820.56;;;11.77;58.47
85524;BME280;75932;48.616;9.270;2024-01-25T09:18:53;99819.44;;;11.78;59.11
85524;BME280;75932;48.616;9.270;2024-01-25T09:21:20;99818.19;;;11.58;60.38
85524;BME280;75932;48.616;9.270;2024-01-25T09:23:46;99820.47;;;11.64;59.80
85524;BME280;75932;48.616;9.270;2024-01-25T09:26:11;99811.56;;;11.71;59.42
85524;BME280;75932;48.616;9.270;2024-01-25T09:28:38;99831.56;;;11.73;58.94
85524;BME280;75932;48.616;9.270;2024-01-25T09:31:04;99830.47;;;11.27;59.85
85524;BME280;75932;48.616;9.270;2024-01-25T09:33:29;99830.06;;;11.08;61.65
85524;BME280;75932;48.616;9.270;2024-01-25T09:35:55;99841.03;;;10.95;62.20
85524;BME280;75932;48.616;9.270;2024-01-25T09:38:21;99840.31;;;11.16;62.42
85524;BME280;75932;48.616;9.270;2024-01-25T09:40:47;99834.91;;;11.19;61.33
85524;BME280;75932;48.616;9.270;2024-01-25T09:43:14;99834.63;;;11.12;62.91
85524;BME280;75932;48.616;9.270;2024-01-25T09:45:40;99838.69;;;11.15;61.09
85524;BME280;75932;48.616;9.270;2024-01-25T09:48:07;99832.53;;;10.92;61.73
85524;BME280;75932;48.616;9.270;2024-01-25T09:50:32;99833.44;;;11.13;61.46
85524;BME280;75932;48.616;9.270;2024-01-25T09:52:59;99844.91;;;11.20;61.69
85524;BME280;75932;48.616;9.270;2024-01-25T09:55:26;99845.88;;;11.33;60.32
85524;BME280;75932;48.616;9.270;2024-01-25T09:57:55;99838.19;;;11.60;60.20
85524;BME280;75932;48.616;9.270;2024-01-25T10:00:24;99843.06;;;11.72;57.66
85524;BME280;75932;48.616;9.270;2024-01-25T10:02:50;99843.59;;;11.95;56.90
85524;BME280;75932;48.616;9.270;2024-01-25T10:05:16;99846.84;;;12.05;56.04
85524;BME280;75932;48.616;9.270;2024-01-25T10:07:43;99839.22;;;11.85;56.84
85524;BME280;75932;48.616;9.270;2024-01-25T10:10:09;99850.34;;;11.55;56.65
85524;BME280;75932;48.616;9.270;2024-01-25T10:12:37;99846.72;;;11.25;57.23
85524;BME280;75932;48.616;9.270;2024-01-25T10:15:04;99845.44;;;11.14;57.95
85524;BME280;75932;48.616;9.270;2024-01-25T10:17:30;99854.06;;;11.30;57.62
85524;BME280;75932;48.616;9.270;2024-01-25T10:19:55;99850.03;;;11.57;57.50
85524;BME280;75932;48.616;9.270;2024-01-25T10:22:21;99836.97;;;11.78;56.44
85524;BME280;75932;48.616;9.270;2024-01-25T10:24:46;99837.38;;;11.59;57.17
85524;BME280;75932;48.616;9.270;2024-01-25T10:27:11;99840.50;;;11.19;57.57
85524;BME280;75932;48.616;9.270;2024-01-25T10:29:41;99832.69;;;10.95;57.43
85524;BME280;75932;48.616;9.270;2024-01-25T10:32:08;99830.09;;;10.73;57.85
85524;BME280;75932;48.616;9.270;2024-01-25T10:34:37;99827.69;;;10.62;59.03
85524;BME280;75932;48.616;9.270;2024-01-25T10:37:06;99823.25;;;10.44;58.85
85524;BME280;75932;48.616;9.270;2024-01-25T10:39:32;99813.75;;;10.36;59.24
85524;BME280;75932;48.616;9.270;2024-01-25T10:41:59;99806.53;;;10.27;59.30
85524;BME280;75932;48.616;9.270;2024-01-25T10:44:25;99828.34;;;10.33;60.24
85524;BME280;75932;48.616;9.270;2024-01-25T10:46:50;99815.06;;;10.30;59.52
85524;BME280;75932;48.616;9.270;2024-01-25T10:49:17;99811.13;;;10.49;60.27
85524;BME280;75932;48.616;9.270;2024-01-25T10:51:44;99810.75;;;10.85;59.33
85524;BME280;75932;48.616;9.270;2024-01-25T10:54:10;99807.22;;;11.23;58.38
85524;BME280;75932;48.616;9.270;2024-01-25T10:56:37;99778.25;;;11.45;55.78
85524;BME280;75932;48.616;9.270;2024-01-25T10:59:03;99800.94;;;11.64;53.43
85524;BME280;75932;48.616;9.270;2024-01-25T11:01:29;99801.19;;;12.10;53.84
85524;BME280;75932;48.616;9.270;2024-01-25T11:03:54;99802.00;;;12.11;54.00
85524;BME280;75932;48.616;9.270;2024-01-25T11:06:21;99799.19;;;11.90;55.33
85524;BME280;75932;48.616;9.270;2024-01-25T11:08:47;99792.03;;;11.80;55.01
85524;BME280;75932;48.616;9.270;2024-01-25T11:11:14;99762.81;;;11.77;54.97
85524;BME280;75932;48.616;9.270;2024-01-25T11:13:43;99789.06;;;11.76;54.44
85524;BME280;75932;48.616;9.270;2024-01-25T11:16:16;99786.53;;;11.92;55.45
85524;BME280;75932;48.616;9.270;2024-01-25T11:18:52;99781.00;;;11.54;55.70
85524;BME280;75932;48.616;9.270;2024-01-25T11:24:19;99762.00;;;11.17;57.17
85524;BME280;75932;48.616;9.270;2024-01-25T11:26:45;99762.72;;;11.06;57.70
85524;BME280;75932;48.616;9.270;2024-01-25T11:29:15;99743.94;;;11.23;57.54
85524;BME280;75932;48.616;9.270;2024-01-25T11:31:42;99748.81;;;11.35;56.63
85524;BME280;75932;48.616;9.270;2024-01-25T11:34:11;99751.38;;;11.70;54.66
85524;BME280;75932;48.616;9.270;2024-01-25T11:36:36;99750.63;;;11.91;54.76
85524;BME280;75932;48.616;9.270;2024-01-25T11:39:04;99745.38;;;12.10;53.93
85524;BME280;75932;48.616;9.270;2024-01-25T11:41:31;99751.53;;;12.37;53.92
85524;BME280;75932;48.616;9.270;2024-01-25T11:43:57;99734.91;;;12.61;53.64
85524;BME280;75932;48.616;9.270;2024-01-25T11:46:22;99738.69;;;12.44;53.60
85524;BME280;75932;48.616;9.270;2024-01-25T11:48:48;99697.13;;;11.68;54.85
85524;BME280;75932;48.616;9.270;2024-01-25T11:51:14;99723.25;;;12.26;54.65
85524;BME280;75932;48.616;9.270;2024-01-25T11:53:40;99724.03;;;12.48;53.35
85524;BME280;75932;48.616;9.270;2024-01-25T11:56:09;99725.38;;;12.75;51.75
85524;BME280;75932;48.616;9.270;2024-01-25T11:58:39;99713.75;;;12.39;52.40
85524;BME280;75932;48.616;9.270;2024-01-25T12:01:06;99734.72;;;12.45;52.28
85524;BME280;75932;48.616;9.270;2024-01-25T12:03:35;99728.28;;;12.12;52.71
85524;BME280;75932;48.616;9.270;2024-01-25T12:06:04;99728.41;;;12.36;52.96
85524;BME280;75932;48.616;9.270;2024-01-25T12:08:31;99727.19;;;12.58;52.11
85524;BME280;75932;48.616;9.270;2024-01-25T12:11:15;99722.63;;;12.87;51.87
85524;BME280;75932;48.616;9.270;2024-01-25T12:13:42;99728.78;;;13.05;51.72
85524;BME280;75932;48.616;9.270;2024-01-25T12:16:09;99727.41;;;13.23;51.41
85524;BME280;75932;48.616;9.270;2024-01-25T12:18:35;99713.44;;;13.11;51.39
85524;BME280;75932;48.616;9.270;2024-01-25T12:21:02;99715.28;;;13.07;51.73
85524;BME280;75932;48.616;9.270;2024-01-25T12:23:38;99709.44;;;12.75;53.12
85524;BME280;75932;48.616;9.270;2024-01-25T12:26:05;99707.44;;;12.76;50.96
85524;BME280;75932;48.616;9.270;2024-01-25T12:28:31;99708.41;;;12.92;52.10
85524;BME280;75932;48.616;9.270;2024-01-25T12:31:00;99698.78;;;13.02;51.75
85524;BME280;75932;48.616;9.270;2024-01-25T12:33:26;99703.66;;;13.42;50.93
85524;BME280;75932;48.616;9.270;2024-01-25T12:35:52;99696.94;;;13.43;50.34
85524;BME280;75932;48.616;9.270;2024-01-25T12:38:19;99694.72;;;13.36;50.06
85524;BME280;75932;48.616;9.270;2024-01-25T12:40:46;99687.81;;;13.58;50.55
85524;BME280;75932;48.616;9.270;2024-01-25T12:43:12;99689.47;;;13.59;49.83
85524;BME280;75932;48.616;9.270;2024-01-25T12:45:37;99675.50;;;13.35;49.91
85524;BME280;75932;48.616;9.270;2024-01-25T12:48:04;99679.22;;;13.39;50.24
85524;BME280;75932;48.616;9.270;2024-01-25T12:50:31;99672.13;;;13.17;50.23
85524;BME280;75932;48.616;9.270;2024-01-25T12:52:57;99677.38;;;13.31;50.83
85524;BME280;75932;48.616;9.270;2024-01-25T12:55:22;99664.06;;;13.15;51.04
85524;BME280;75932;48.616;9.270;2024-01-25T12:57:47;99664.28;;;12.85;50.93
85524;BME280;75932;48.616;9.270;2024-01-25T13:00:13;99662.75;;;12.76;50.88
85524;BME280;75932;48.616;9.270;2024-01-25T13:02:38;99669.88;;;12.85;50.82
85524;BME280;75932;48.616;9.270;2024-01-25T13:05:04;99653.34;;;12.93;51.10